CheckWX is a tool to help pilots better visualize weather data.  It is not intended as a substitute for an official pre-flight weather briefing.

16:40:04 UTC

KBLM METAR
Monmouth Executive Airport
Belmar/Farmingdale, New Jersey, USA
Current

44 mins ago

KBLM 071556Z AUTO 10005KT 10SM OVC050 16/01 A2995 RMK AO2 SLP142 T01560011
Observed
Apr-7 @ 15:56 UTC
Wind
  • 100° at 5 KTS
Visibility
Flight Rules
VFR
Cloud Levels
  • Overcast at 5,000' AGL
Temperature
16°C / 61°F
Dewpoint
C / 34°F
Humidity
36%
Altimeter
29.95" Hg
Pressure
1014.22 hPa
Previous

2 hours ago

KBLM 071456Z AUTO VRB03KT 10SM BKN060 OVC100 15/00 A2998 RMK AO2 SLP154 T01500000 57008
Observed
Apr-7 @ 14:56 UTC
Wind
  • Variable at 3 KTS
Visibility
Flight Rules
VFR
Cloud Levels
  • Broken at 6,000' AGL
  • Overcast at 10,000' AGL
Temperature
15°C / 59°F
Dewpoint
C / 32°F
Humidity
36%
Altimeter
29.98" Hg
Pressure
1015.22 hPa
Previous

3 hours ago

KBLM 071356Z AUTO 31003KT 10SM OVC100 14/00 A2999 RMK AO2 SLP158 T01390000
Observed
Apr-7 @ 13:56 UTC
Wind
  • 310° at 3 KTS
Visibility
Flight Rules
VFR
Cloud Levels
  • Overcast at 10,000' AGL
Temperature
14°C / 57°F
Dewpoint
C / 32°F
Humidity
39%
Altimeter
29.99" Hg
Pressure
1015.62 hPa